sensor_id;sensor_type;location;lat;lon;timestamp;pressure;altitude;pressure_sealevel;temperature;humidity
27144;BME280;14672;50.250;8.312;2022-12-29T00:02:22;98031.16;;;12.23;68.03
27144;BME280;14672;50.250;8.312;2022-12-29T00:04:49;98030.19;;;12.11;68.90
27144;BME280;14672;50.250;8.312;2022-12-29T00:07:17;98027.25;;;12.20;68.23
27144;BME280;14672;50.250;8.312;2022-12-29T00:09:43;98014.97;;;12.29;68.25
27144;BME280;14672;50.250;8.312;2022-12-29T00:12:09;98028.50;;;12.19;68.37
27144;BME280;14672;50.250;8.312;2022-12-29T00:14:34;98034.13;;;12.29;68.55
27144;BME280;14672;50.250;8.312;2022-12-29T00:17:19;98030.69;;;12.24;68.65
27144;BME280;14672;50.250;8.312;2022-12-29T00:19:45;98033.31;;;12.28;68.68
27144;BME280;14672;50.250;8.312;2022-12-29T00:22:29;98029.41;;;12.26;68.82
27144;BME280;14672;50.250;8.312;2022-12-29T00:25:14;98028.81;;;12.36;68.99
27144;BME280;14672;50.250;8.312;2022-12-29T00:27:59;98034.03;;;12.38;69.04
27144;BME280;14672;50.250;8.312;2022-12-29T00:30:43;98032.63;;;12.48;69.02
27144;BME280;14672;50.250;8.312;2022-12-29T00:33:32;98029.09;;;12.53;69.29
27144;BME280;14672;50.250;8.312;2022-12-29T00:36:25;98033.13;;;12.61;69.04
27144;BME280;14672;50.250;8.312;2022-12-29T00:39:00;98029.28;;;12.64;68.74
27144;BME280;14672;50.250;8.312;2022-12-29T00:41:45;98031.28;;;12.58;69.62
27144;BME280;14672;50.250;8.312;2022-12-29T00:44:31;98032.25;;;12.40;70.69
27144;BME280;14672;50.250;8.312;2022-12-29T00:46:56;98037.47;;;12.42;70.93
27144;BME280;14672;50.250;8.312;2022-12-29T00:49:22;98023.09;;;12.51;70.66
27144;BME280;14672;50.250;8.312;2022-12-29T00:52:05;98015.34;;;12.51;70.55
27144;BME280;14672;50.250;8.312;2022-12-29T00:54:35;98019.19;;;12.48;70.87
27144;BME280;14672;50.250;8.312;2022-12-29T00:57:02;98004.31;;;12.59;70.69
27144;BME280;14672;50.250;8.312;2022-12-29T00:59:28;98012.09;;;12.44;71.07
27144;BME280;14672;50.250;8.312;2022-12-29T01:01:55;98009.47;;;12.40;71.33
27144;BME280;14672;50.250;8.312;2022-12-29T01:04:23;98004.31;;;12.59;71.01
27144;BME280;14672;50.250;8.312;2022-12-29T01:06:50;98004.84;;;12.43;71.57
27144;BME280;14672;50.250;8.312;2022-12-29T01:09:18;98001.28;;;12.48;71.36
27144;BME280;14672;50.250;8.312;2022-12-29T01:12:03;98008.78;;;12.31;72.30
27144;BME280;14672;50.250;8.312;2022-12-29T01:14:29;98004.16;;;12.48;71.28
27144;BME280;14672;50.250;8.312;2022-12-29T01:16:55;97996.09;;;12.46;71.32
27144;BME280;14672;50.250;8.312;2022-12-29T01:19:23;98002.66;;;12.52;71.07
27144;BME280;14672;50.250;8.312;2022-12-29T01:21:49;97995.97;;;12.55;70.97
27144;BME280;14672;50.250;8.312;2022-12-29T01:24:16;97996.41;;;12.34;72.05
27144;BME280;14672;50.250;8.312;2022-12-29T01:26:43;98000.13;;;12.10;73.19
27144;BME280;14672;50.250;8.312;2022-12-29T01:29:09;98000.13;;;12.40;72.43
27144;BME280;14672;50.250;8.312;2022-12-29T01:31:35;98000.63;;;12.23;73.15
27144;BME280;14672;50.250;8.312;2022-12-29T01:34:02;97999.34;;;12.24;72.97
27144;BME280;14672;50.250;8.312;2022-12-29T01:36:28;98005.63;;;12.29;72.81
27144;BME280;14672;50.250;8.312;2022-12-29T01:38:53;98005.72;;;12.19;73.55
27144;BME280;14672;50.250;8.312;2022-12-29T01:41:19;98008.69;;;12.25;73.17
27144;BME280;14672;50.250;8.312;2022-12-29T01:44:01;98000.13;;;12.40;73.41
27144;BME280;14672;50.250;8.312;2022-12-29T01:46:36;97995.00;;;12.44;72.64
27144;BME280;14672;50.250;8.312;2022-12-29T01:49:13;98017.31;;;12.45;72.96
27144;BME280;14672;50.250;8.312;2022-12-29T01:51:57;98013.19;;;12.32;73.77
27144;BME280;14672;50.250;8.312;2022-12-29T01:57:02;98016.44;;;12.39;73.61
27144;BME280;14672;50.250;8.312;2022-12-29T01:59:35;98013.00;;;12.50;73.04
27144;BME280;14672;50.250;8.312;2022-12-29T02:02:02;98004.88;;;12.13;74.37
27144;BME280;14672;50.250;8.312;2022-12-29T02:04:30;98002.88;;;12.19;74.26
27144;BME280;14672;50.250;8.312;2022-12-29T02:07:04;98002.69;;;12.23;74.23
27144;BME280;14672;50.250;8.312;2022-12-29T02:09:31;97998.28;;;12.37;73.32
27144;BME280;14672;50.250;8.312;2022-12-29T02:11:58;97988.84;;;12.31;73.91
27144;BME280;14672;50.250;8.312;2022-12-29T02:14:24;97977.94;;;12.44;73.33
27144;BME280;14672;50.250;8.312;2022-12-29T02:17:12;97976.75;;;12.36;73.44
27144;BME280;14672;50.250;8.312;2022-12-29T02:20:27;97968.91;;;12.45;72.53
27144;BME280;14672;50.250;8.312;2022-12-29T02:31:34;97957.50;;;12.31;74.32
27144;BME280;14672;50.250;8.312;2022-12-29T02:42:54;97944.16;;;12.37;75.06
27144;BME280;14672;50.250;8.312;2022-12-29T02:45:45;97953.69;;;12.19;75.64
27144;BME280;14672;50.250;8.312;2022-12-29T02:51:35;97945.44;;;12.36;74.96
27144;BME280;14672;50.250;8.312;2022-12-29T02:54:04;97937.00;;;12.27;76.08
27144;BME280;14672;50.250;8.312;2022-12-29T02:56:48;97943.06;;;12.34;75.38
27144;BME280;14672;50.250;8.312;2022-12-29T02:59:15;97926.00;;;12.19;76.18
27144;BME280;14672;50.250;8.312;2022-12-29T03:08:06;97918.03;;;12.23;76.88
27144;BME280;14672;50.250;8.312;2022-12-29T03:11:10;97915.38;;;12.35;76.19
27144;BME280;14672;50.250;8.312;2022-12-29T03:14:14;97916.09;;;12.30;76.38
27144;BME280;14672;50.250;8.312;2022-12-29T03:17:10;97929.25;;;12.12;76.90
27144;BME280;14672;50.250;8.312;2022-12-29T03:19:46;97917.97;;;12.18;76.57
27144;BME280;14672;50.250;8.312;2022-12-29T03:22:21;97929.22;;;12.27;76.44
27144;BME280;14672;50.250;8.312;2022-12-29T03:25:14;97915.50;;;12.26;76.31
27144;BME280;14672;50.250;8.312;2022-12-29T03:27:49;97908.81;;;12.29;76.21
27144;BME280;14672;50.250;8.312;2022-12-29T03:30:17;97921.16;;;12.40;76.00
27144;BME280;14672;50.250;8.312;2022-12-29T03:33:06;97917.94;;;12.33;76.34
27144;BME280;14672;50.250;8.312;2022-12-29T03:35:38;97906.44;;;12.42;76.13
27144;BME280;14672;50.250;8.312;2022-12-29T03:41:14;97901.91;;;12.35;75.94
27144;BME280;14672;50.250;8.312;2022-12-29T03:43:41;97899.47;;;12.28;75.83
27144;BME280;14672;50.250;8.312;2022-12-29T03:46:07;97901.84;;;12.30;75.90
27144;BME280;14672;50.250;8.312;2022-12-29T03:48:33;97908.22;;;12.24;76.30
27144;BME280;14672;50.250;8.312;2022-12-29T03:50:59;97903.97;;;12.35;76.12
27144;BME280;14672;50.250;8.312;2022-12-29T03:53:24;97898.84;;;12.39;76.14
27144;BME280;14672;50.250;8.312;2022-12-29T03:55:50;97889.94;;;12.46;75.72
27144;BME280;14672;50.250;8.312;2022-12-29T03:58:16;97897.84;;;12.21;76.45
27144;BME280;14672;50.250;8.312;2022-12-29T04:00:42;97878.28;;;12.14;76.42
27144;BME280;14672;50.250;8.312;2022-12-29T04:03:08;97875.22;;;12.33;76.21
27144;BME280;14672;50.250;8.312;2022-12-29T04:05:33;97871.16;;;12.39;75.33
27144;BME280;14672;50.250;8.312;2022-12-29T04:07:59;97882.88;;;12.41;75.09
27144;BME280;14672;50.250;8.312;2022-12-29T04:10:25;97883.94;;;12.44;75.00
27144;BME280;14672;50.250;8.312;2022-12-29T04:12:51;97879.13;;;12.35;75.11
27144;BME280;14672;50.250;8.312;2022-12-29T04:15:17;97871.47;;;12.41;75.25
27144;BME280;14672;50.250;8.312;2022-12-29T04:17:42;97891.09;;;12.54;75.00
27144;BME280;14672;50.250;8.312;2022-12-29T04:20:08;97896.59;;;12.43;75.63
27144;BME280;14672;50.250;8.312;2022-12-29T04:23:04;97887.16;;;12.51;76.02
27144;BME280;14672;50.250;8.312;2022-12-29T04:25:31;97896.00;;;12.53;75.43
27144;BME280;14672;50.250;8.312;2022-12-29T04:27:57;97877.81;;;12.51;74.95
27144;BME280;14672;50.250;8.312;2022-12-29T04:30:23;97890.69;;;12.46;75.31
27144;BME280;14672;50.250;8.312;2022-12-29T04:32:49;97884.19;;;12.60;74.71
27144;BME280;14672;50.250;8.312;2022-12-29T04:35:15;97893.84;;;12.48;74.91
27144;BME280;14672;50.250;8.312;2022-12-29T04:37:41;97886.78;;;12.44;75.24
27144;BME280;14672;50.250;8.312;2022-12-29T04:40:08;97892.47;;;12.44;75.20
27144;BME280;14672;50.250;8.312;2022-12-29T04:42:34;97887.50;;;12.59;74.96
27144;BME280;14672;50.250;8.312;2022-12-29T04:45:00;97884.66;;;12.59;74.88
27144;BME280;14672;50.250;8.312;2022-12-29T04:47:25;97874.16;;;12.50;75.10
27144;BME280;14672;50.250;8.312;2022-12-29T04:49:51;97876.41;;;12.61;74.57
27144;BME280;14672;50.250;8.312;2022-12-29T04:52:17;97882.66;;;12.45;74.64
27144;BME280;14672;50.250;8.312;2022-12-29T04:54:42;97880.81;;;12.62;74.26
27144;BME280;14672;50.250;8.312;2022-12-29T04:57:08;97879.69;;;12.54;73.91
27144;BME280;14672;50.250;8.312;2022-12-29T04:59:34;97891.66;;;12.58;73.80
27144;BME280;14672;50.250;8.312;2022-12-29T05:02:00;97873.31;;;12.44;74.18
27144;BME280;14672;50.250;8.312;2022-12-29T05:04:25;97880.66;;;12.51;73.79
27144;BME280;14672;50.250;8.312;2022-12-29T05:06:51;97874.69;;;12.49;73.87
27144;BME280;14672;50.250;8.312;2022-12-29T05:09:17;97871.16;;;12.39;73.21
27144;BME280;14672;50.250;8.312;2022-12-29T05:11:42;97886.94;;;12.55;73.05
27144;BME280;14672;50.250;8.312;2022-12-29T05:14:09;97877.69;;;12.60;72.63
27144;BME280;14672;50.250;8.312;2022-12-29T05:16:35;97868.91;;;12.43;73.04
27144;BME280;14672;50.250;8.312;2022-12-29T05:19:01;97872.25;;;12.42;73.22
27144;BME280;14672;50.250;8.312;2022-12-29T05:21:27;97863.16;;;12.58;72.50
27144;BME280;14672;50.250;8.312;2022-12-29T05:23:53;97873.25;;;12.59;72.26
27144;BME280;14672;50.250;8.312;2022-12-29T05:26:19;97874.94;;;12.65;72.36
27144;BME280;14672;50.250;8.312;2022-12-29T05:28:44;97878.13;;;12.53;72.73
27144;BME280;14672;50.250;8.312;2022-12-29T05:31:10;97876.84;;;12.54;72.86
27144;BME280;14672;50.250;8.312;2022-12-29T05:33:36;97869.72;;;12.64;72.55
27144;BME280;14672;50.250;8.312;2022-12-29T05:36:07;97872.13;;;12.71;72.50
27144;BME280;14672;50.250;8.312;2022-12-29T05:38:34;97879.63;;;12.68;72.39
27144;BME280;14672;50.250;8.312;2022-12-29T05:41:00;97877.31;;;12.52;72.93
27144;BME280;14672;50.250;8.312;2022-12-29T05:43:26;97879.41;;;12.72;72.26
27144;BME280;14672;50.250;8.312;2022-12-29T05:45:52;97884.22;;;12.66;72.68
27144;BME280;14672;50.250;8.312;2022-12-29T05:48:18;97873.41;;;12.50;73.38
27144;BME280;14672;50.250;8.312;2022-12-29T05:50:49;97883.50;;;12.51;73.20
27144;BME280;14672;50.250;8.312;2022-12-29T05:53:15;97871.72;;;12.58;72.90
27144;BME280;14672;50.250;8.312;2022-12-29T05:55:43;97875.53;;;12.55;72.96
27144;BME280;14672;50.250;8.312;2022-12-29T05:58:09;97869.41;;;12.62;72.82
27144;BME280;14672;50.250;8.312;2022-12-29T06:00:34;97888.22;;;12.54;72.97
27144;BME280;14672;50.250;8.312;2022-12-29T06:03:00;97883.97;;;12.64;73.04
27144;BME280;14672;50.250;8.312;2022-12-29T06:05:26;97886.00;;;12.43;74.22
27144;BME280;14672;50.250;8.312;2022-12-29T06:07:52;97897.63;;;12.60;73.86
27144;BME280;14672;50.250;8.312;2022-12-29T06:10:17;97895.63;;;12.66;73.59
27144;BME280;14672;50.250;8.312;2022-12-29T06:12:43;97883.59;;;12.56;73.85
27144;BME280;14672;50.250;8.312;2022-12-29T06:15:10;97893.34;;;12.70;73.06
27144;BME280;14672;50.250;8.312;2022-12-29T06:17:35;97886.50;;;12.62;73.34
27144;BME280;14672;50.250;8.312;2022-12-29T06:20:02;97883.22;;;12.49;73.79
27144;BME280;14672;50.250;8.312;2022-12-29T06:22:28;97888.66;;;12.67;73.17
27144;BME280;14672;50.250;8.312;2022-12-29T06:24:54;97891.25;;;12.65;73.13
27144;BME280;14672;50.250;8.312;2022-12-29T06:27:19;97891.81;;;12.69;73.36
27144;BME280;14672;50.250;8.312;2022-12-29T06:29:45;97881.38;;;12.66;72.84
27144;BME280;14672;50.250;8.312;2022-12-29T06:32:11;97875.69;;;12.66;73.08
27144;BME280;14672;50.250;8.312;2022-12-29T06:34:37;97868.44;;;12.65;72.65
27144;BME280;14672;50.250;8.312;2022-12-29T06:37:03;97879.06;;;12.64;72.82
27144;BME280;14672;50.250;8.312;2022-12-29T06:39:29;97886.69;;;12.73;72.67
27144;BME280;14672;50.250;8.312;2022-12-29T06:41:55;97871.56;;;12.87;72.28
27144;BME280;14672;50.250;8.312;2022-12-29T06:44:21;97882.53;;;12.74;72.57
27144;BME280;14672;50.250;8.312;2022-12-29T06:46:48;97874.94;;;12.86;72.72
27144;BME280;14672;50.250;8.312;2022-12-29T06:49:14;97868.72;;;12.67;73.36
27144;BME280;14672;50.250;8.312;2022-12-29T06:51:40;97865.25;;;12.78;73.23
27144;BME280;14672;50.250;8.312;2022-12-29T06:54:06;97869.59;;;12.93;72.66
27144;BME280;14672;50.250;8.312;2022-12-29T06:56:31;97865.59;;;12.65;73.33
27144;BME280;14672;50.250;8.312;2022-12-29T06:58:57;97873.13;;;12.68;73.29
27144;BME280;14672;50.250;8.312;2022-12-29T07:01:25;97876.44;;;12.81;73.24
27144;BME280;14672;50.250;8.312;2022-12-29T07:03:51;97874.13;;;12.65;73.47
27144;BME280;14672;50.250;8.312;2022-12-29T07:06:17;97874.56;;;12.58;73.77
27144;BME280;14672;50.250;8.312;2022-12-29T07:08:43;97869.00;;;12.69;73.71
27144;BME280;14672;50.250;8.312;2022-12-29T07:11:09;97870.56;;;12.70;73.27
27144;BME280;14672;50.250;8.312;2022-12-29T07:13:35;97871.00;;;12.63;73.23
27144;BME280;14672;50.250;8.312;2022-12-29T07:16:06;97861.69;;;12.28;73.84
27144;BME280;14672;50.250;8.312;2022-12-29T07:18:32;97864.00;;;12.64;72.78
27144;BME280;14672;50.250;8.312;2022-12-29T07:20:58;97873.63;;;12.66;72.80
27144;BME280;14672;50.250;8.312;2022-12-29T07:23:24;97863.47;;;12.80;72.25
27144;BME280;14672;50.250;8.312;2022-12-29T07:25:50;97865.44;;;12.74;71.78
27144;BME280;14672;50.250;8.312;2022-12-29T07:28:16;97863.38;;;12.75;71.80
27144;BME280;14672;50.250;8.312;2022-12-29T07:30:41;97861.03;;;12.73;71.52
27144;BME280;14672;50.250;8.312;2022-12-29T07:33:07;97863.16;;;12.58;72.20
27144;BME280;14672;50.250;8.312;2022-12-29T07:35:36;97864.72;;;12.59;71.94
27144;BME280;14672;50.250;8.312;2022-12-29T07:38:02;97852.63;;;12.84;70.98
27144;BME280;14672;50.250;8.312;2022-12-29T07:40:27;97871.72;;;12.78;71.22
27144;BME280;14672;50.250;8.312;2022-12-29T07:42:53;97880.78;;;12.77;71.60
27144;BME280;14672;50.250;8.312;2022-12-29T07:45:19;97878.97;;;12.79;71.47
27144;BME280;14672;50.250;8.312;2022-12-29T07:47:48;97879.97;;;12.76;70.81
27144;BME280;14672;50.250;8.312;2022-12-29T07:50:15;97873.72;;;12.92;70.13
27144;BME280;14672;50.250;8.312;2022-12-29T07:52:40;97876.84;;;12.94;69.87
27144;BME280;14672;50.250;8.312;2022-12-29T07:55:06;97880.69;;;12.91;69.70
27144;BME280;14672;50.250;8.312;2022-12-29T07:57:32;97880.00;;;12.96;69.43
27144;BME280;14672;50.250;8.312;2022-12-29T07:59:58;97880.47;;;12.75;69.53
27144;BME280;14672;50.250;8.312;2022-12-29T08:02:24;97892.09;;;12.91;69.28
27144;BME280;14672;50.250;8.312;2022-12-29T08:04:51;97894.94;;;12.91;69.47
27144;BME280;14672;50.250;8.312;2022-12-29T08:07:17;97903.28;;;12.95;69.24
27144;BME280;14672;50.250;8.312;2022-12-29T08:09:43;97895.75;;;12.92;69.02
27144;BME280;14672;50.250;8.312;2022-12-29T08:12:10;97910.63;;;12.81;69.38
27144;BME280;14672;50.250;8.312;2022-12-29T08:14:36;97899.16;;;12.96;69.03
27144;BME280;14672;50.250;8.312;2022-12-29T08:17:02;97898.22;;;13.04;68.76
27144;BME280;14672;50.250;8.312;2022-12-29T08:19:28;97894.38;;;13.07;68.46
27144;BME280;14672;50.250;8.312;2022-12-29T08:21:53;97913.66;;;13.12;68.46
27144;BME280;14672;50.250;8.312;2022-12-29T08:24:19;97902.94;;;12.87;68.96
27144;BME280;14672;50.250;8.312;2022-12-29T08:26:45;97907.34;;;12.88;69.17
27144;BME280;14672;50.250;8.312;2022-12-29T08:29:11;97905.91;;;12.98;68.68
27144;BME280;14672;50.250;8.312;2022-12-29T08:31:37;97911.78;;;12.89;68.79
27144;BME280;14672;50.250;8.312;2022-12-29T08:34:03;97901.09;;;13.04;68.24
27144;BME280;14672;50.250;8.312;2022-12-29T08:36:29;97907.06;;;13.06;68.84
27144;BME280;14672;50.250;8.312;2022-12-29T08:38:56;97915.25;;;13.13;68.62
27144;BME280;14672;50.250;8.312;2022-12-29T08:41:22;97925.41;;;13.20;68.28
27144;BME280;14672;50.250;8.312;2022-12-29T08:43:49;97925.84;;;13.13;68.90
27144;BME280;14672;50.250;8.312;2022-12-29T08:46:16;97940.59;;;13.11;68.87
27144;BME280;14672;50.250;8.312;2022-12-29T08:48:42;97930.47;;;13.10;68.65
27144;BME280;14672;50.250;8.312;2022-12-29T08:51:08;97929.59;;;13.04;68.88
27144;BME280;14672;50.250;8.312;2022-12-29T08:53:34;97934.75;;;13.21;68.39
27144;BME280;14672;50.250;8.312;2022-12-29T08:56:01;97949.25;;;13.17;68.75
27144;BME280;14672;50.250;8.312;2022-12-29T08:58:27;97936.63;;;13.24;68.66
27144;BME280;14672;50.250;8.312;2022-12-29T09:00:54;97939.31;;;13.33;68.48
27144;BME280;14672;50.250;8.312;2022-12-29T09:03:21;97941.88;;;13.31;68.31
27144;BME280;14672;50.250;8.312;2022-12-29T09:05:50;97932.03;;;13.11;68.90
27144;BME280;14672;50.250;8.312;2022-12-29T09:08:17;97939.94;;;13.22;68.79
27144;BME280;14672;50.250;8.312;2022-12-29T09:10:44;97943.81;;;13.39;68.41
27144;BME280;14672;50.250;8.312;2022-12-29T09:13:11;97945.88;;;13.18;69.03
27144;BME280;14672;50.250;8.312;2022-12-29T09:15:37;97950.72;;;13.33;68.55
27144;BME280;14672;50.250;8.312;2022-12-29T09:18:03;97958.06;;;13.19;69.43
27144;BME280;14672;50.250;8.312;2022-12-29T09:20:29;97952.94;;;13.23;69.12
27144;BME280;14672;50.250;8.312;2022-12-29T09:22:55;97957.59;;;13.21;69.18
27144;BME280;14672;50.250;8.312;2022-12-29T09:25:21;97955.31;;;13.25;69.16
27144;BME280;14672;50.250;8.312;2022-12-29T09:27:51;97962.00;;;13.22;68.66
27144;BME280;14672;50.250;8.312;2022-12-29T09:30:20;97958.84;;;13.40;68.00
27144;BME280;14672;50.250;8.312;2022-12-29T09:32:47;97963.03;;;13.04;69.02
27144;BME280;14672;50.250;8.312;2022-12-29T09:35:14;97957.72;;;13.32;68.41
27144;BME280;14672;50.250;8.312;2022-12-29T09:37:40;97970.19;;;13.54;67.80
27144;BME280;14672;50.250;8.312;2022-12-29T09:40:20;97956.56;;;13.44;67.78
27144;BME280;14672;50.250;8.312;2022-12-29T09:48:23;97971.41;;;13.48;67.37
27144;BME280;14672;50.250;8.312;2022-12-29T09:50:57;97976.66;;;13.55;66.55
27144;BME280;14672;50.250;8.312;2022-12-29T09:53:49;97978.38;;;13.47;66.70
27144;BME280;14672;50.250;8.312;2022-12-29T09:56:23;97966.69;;;13.45;66.13
27144;BME280;14672;50.250;8.312;2022-12-29T10:04:55;97973.88;;;13.60;66.47
27144;BME280;14672;50.250;8.312;2022-12-29T10:07:26;97978.25;;;13.56;66.31
27144;BME280;14672;50.250;8.312;2022-12-29T10:21:45;97982.91;;;13.79;63.85
27144;BME280;14672;50.250;8.312;2022-12-29T10:24:14;97982.56;;;13.72;64.06
27144;BME280;14672;50.250;8.312;2022-12-29T10:26:44;97988.63;;;13.79;63.87
27144;BME280;14672;50.250;8.312;2022-12-29T10:29:21;98000.28;;;14.01;63.76
27144;BME280;14672;50.250;8.312;2022-12-29T10:32:00;97986.91;;;13.87;63.52
27144;BME280;14672;50.250;8.312;2022-12-29T10:34:41;97992.41;;;14.17;63.39
27144;BME280;14672;50.250;8.312;2022-12-29T10:39:50;97977.38;;;14.47;62.86
27144;BME280;14672;50.250;8.312;2022-12-29T10:42:34;97978.50;;;14.92;62.30
27144;BME280;14672;50.250;8.312;2022-12-29T10:45:03;97970.31;;;15.17;61.60
27144;BME280;14672;50.250;8.312;2022-12-29T10:47:37;97975.88;;;15.37;59.15
27144;BME280;14672;50.250;8.312;2022-12-29T10:50:05;97969.50;;;15.11;59.18
27144;BME280;14672;50.250;8.312;2022-12-29T10:52:33;97979.09;;;15.08;57.90
27144;BME280;14672;50.250;8.312;2022-12-29T10:55:12;97975.25;;;15.16;55.58
27144;BME280;14672;50.250;8.312;2022-12-29T10:57:48;97978.69;;;15.26;55.48
27144;BME280;14672;50.250;8.312;2022-12-29T11:00:22;97975.03;;;15.25;55.21
27144;BME280;14672;50.250;8.312;2022-12-29T11:03:45;97972.34;;;15.11;54.81
27144;BME280;14672;50.250;8.312;2022-12-29T11:06:26;97973.63;;;15.04;54.46
27144;BME280;14672;50.250;8.312;2022-12-29T11:08:59;97976.50;;;15.10;54.72
27144;BME280;14672;50.250;8.312;2022-12-29T11:11:34;97970.81;;;15.15;54.67
27144;BME280;14672;50.250;8.312;2022-12-29T11:14:13;98001.47;;;15.09;54.01
27144;BME280;14672;50.250;8.312;2022-12-29T11:16:40;97999.06;;;14.96;53.44
27144;BME280;14672;50.250;8.312;2022-12-29T11:19:22;98002.97;;;14.99;53.79
27144;BME280;14672;50.250;8.312;2022-12-29T11:21:48;98009.66;;;14.85;53.66
27144;BME280;14672;50.250;8.312;2022-12-29T11:24:24;98010.41;;;14.85;53.41
27144;BME280;14672;50.250;8.312;2022-12-29T11:29:45;98003.59;;;14.77;53.31
27144;BME280;14672;50.250;8.312;2022-12-29T11:32:26;98013.59;;;14.62;53.27
27144;BME280;14672;50.250;8.312;2022-12-29T11:34:52;98010.88;;;14.47;54.16
27144;BME280;14672;50.250;8.312;2022-12-29T11:40:15;98013.91;;;14.69;53.47
27144;BME280;14672;50.250;8.312;2022-12-29T11:43:12;98010.03;;;15.03;53.57
27144;BME280;14672;50.250;8.312;2022-12-29T11:45:46;98036.25;;;15.39;52.68
27144;BME280;14672;50.250;8.312;2022-12-29T11:48:20;98016.13;;;15.22;53.26
27144;BME280;14672;50.250;8.312;2022-12-29T11:50:57;98013.75;;;15.21;52.59
27144;BME280;14672;50.250;8.312;2022-12-29T11:56:02;98020.69;;;15.03;51.88
27144;BME280;14672;50.250;8.312;2022-12-29T11:58:31;98016.34;;;15.19;51.63
27144;BME280;14672;50.250;8.312;2022-12-29T12:03:38;98022.56;;;15.12;51.94
27144;BME280;14672;50.250;8.312;2022-12-29T12:06:14;98020.38;;;14.95;52.34
27144;BME280;14672;50.250;8.312;2022-12-29T12:09:13;98027.84;;;14.87;52.16
27144;BME280;14672;50.250;8.312;2022-12-29T12:11:43;98037.72;;;14.86;52.25
27144;BME280;14672;50.250;8.312;2022-12-29T12:22:41;98016.03;;;14.74;52.15
27144;BME280;14672;50.250;8.312;2022-12-29T12:25:37;98018.22;;;14.53;53.10
27144;BME280;14672;50.250;8.312;2022-12-29T12:28:39;98021.75;;;14.69;53.13
27144;BME280;14672;50.250;8.312;2022-12-29T12:31:35;98021.75;;;14.74;53.56
27144;BME280;14672;50.250;8.312;2022-12-29T12:34:20;98014.25;;;14.77;53.23
27144;BME280;14672;50.250;8.312;2022-12-29T12:37:19;98023.41;;;14.81;53.57
27144;BME280;14672;50.250;8.312;2022-12-29T12:49:34;98027.94;;;14.67;52.52
27144;BME280;14672;50.250;8.312;2022-12-29T12:55:29;98030.06;;;14.72;52.92
27144;BME280;14672;50.250;8.312;2022-12-29T13:04:37;98015.22;;;14.37;53.52
27144;BME280;14672;50.250;8.312;2022-12-29T13:19:02;98025.41;;;14.43;53.71
27144;BME280;14672;50.250;8.312;2022-12-29T13:22:14;98014.31;;;14.51;53.86
27144;BME280;14672;50.250;8.312;2022-12-29T13:27:51;98009.13;;;14.55;53.84
27144;BME280;14672;50.250;8.312;2022-12-29T13:30:58;98009.94;;;14.55;54.01
27144;BME280;14672;50.250;8.312;2022-12-29T13:34:00;98009.03;;;14.44;53.94
27144;BME280;14672;50.250;8.312;2022-12-29T13:36:43;98012.16;;;14.46;54.68
27144;BME280;14672;50.250;8.312;2022-12-29T13:39:47;98012.72;;;14.50;54.72
27144;BME280;14672;50.250;8.312;2022-12-29T13:42:17;98028.31;;;14.49;54.35
27144;BME280;14672;50.250;8.312;2022-12-29T13:44:54;98022.06;;;14.45;54.46
27144;BME280;14672;50.250;8.312;2022-12-29T13:47:39;98023.59;;;14.46;54.07
27144;BME280;14672;50.250;8.312;2022-12-29T13:50:20;98017.88;;;14.46;54.45
27144;BME280;14672;50.250;8.312;2022-12-29T13:53:33;98020.75;;;14.46;54.10
27144;BME280;14672;50.250;8.312;2022-12-29T13:59:48;98009.13;;;14.55;54.88
27144;BME280;14672;50.250;8.312;2022-12-29T14:07:46;98031.91;;;14.44;54.96
27144;BME280;14672;50.250;8.312;2022-12-29T14:10:37;98034.25;;;14.45;55.05
27144;BME280;14672;50.250;8.312;2022-12-29T14:15:42;98042.09;;;14.50;54.85
27144;BME280;14672;50.250;8.312;2022-12-29T14:18:19;98032.72;;;14.50;54.87
27144;BME280;14672;50.250;8.312;2022-12-29T14:28:47;98039.81;;;14.34;54.43
27144;BME280;14672;50.250;8.312;2022-12-29T14:33:41;98053.06;;;14.32;54.29
27144;BME280;14672;50.250;8.312;2022-12-29T14:36:34;98045.22;;;14.27;54.45
27144;BME280;14672;50.250;8.312;2022-12-29T14:39:00;98056.84;;;14.43;54.13
27144;BME280;14672;50.250;8.312;2022-12-29T14:41:32;98070.63;;;14.45;54.31
27144;BME280;14672;50.250;8.312;2022-12-29T14:44:01;98063.06;;;14.42;54.58
27144;BME280;14672;50.250;8.312;2022-12-29T14:49:22;98052.19;;;14.46;54.11
27144;BME280;14672;50.250;8.312;2022-12-29T14:51:55;98052.97;;;14.46;54.21
27144;BME280;14672;50.250;8.312;2022-12-29T14:54:43;98066.47;;;14.46;54.56
27144;BME280;14672;50.250;8.312;2022-12-29T14:57:53;98067.97;;;14.41;54.60
27144;BME280;14672;50.250;8.312;2022-12-29T15:00:22;98059.19;;;14.45;54.45
27144;BME280;14672;50.250;8.312;2022-12-29T15:03:18;98049.38;;;14.51;54.34
27144;BME280;14672;50.250;8.312;2022-12-29T15:06:08;98060.47;;;14.44;55.19
27144;BME280;14672;50.250;8.312;2022-12-29T15:09:33;98058.78;;;14.32;54.31
27144;BME280;14672;50.250;8.312;2022-12-29T15:12:37;98074.34;;;14.31;53.81
27144;BME280;14672;50.250;8.312;2022-12-29T15:15:26;98066.06;;;14.33;53.05
27144;BME280;14672;50.250;8.312;2022-12-29T15:17:52;98077.28;;;14.36;52.96
27144;BME280;14672;50.250;8.312;2022-12-29T15:20:30;98067.16;;;14.35;52.73
27144;BME280;14672;50.250;8.312;2022-12-29T15:23:00;98072.75;;;14.30;52.40
27144;BME280;14672;50.250;8.312;2022-12-29T15:25:28;98080.50;;;14.24;51.06
27144;BME280;14672;50.250;8.312;2022-12-29T15:28:03;98091.84;;;14.18;50.34
27144;BME280;14672;50.250;8.312;2022-12-29T15:30:30;98070.50;;;14.13;50.43
27144;BME280;14672;50.250;8.312;2022-12-29T15:32:56;98088.22;;;13.97;50.55
27144;BME280;14672;50.250;8.312;2022-12-29T15:35:34;98089.97;;;13.89;50.11
27144;BME280;14672;50.250;8.312;2022-12-29T15:38:12;98090.34;;;13.97;50.41
27144;BME280;14672;50.250;8.312;2022-12-29T15:40:38;98079.97;;;13.99;50.18
27144;BME280;14672;50.250;8.312;2022-12-29T15:43:23;98085.75;;;14.05;50.69
27144;BME280;14672;50.250;8.312;2022-12-29T15:45:51;98090.75;;;13.90;50.31